sensor_id;sensor_type;location;lat;lon;timestamp;pressure;altitude;pressure_sealevel;temperature;humidity
10127;BME280;13080;42.608;23.362;2024-02-16T00:01:00;151242.59;;;0.54;81.78
10127;BME280;13080;42.608;23.362;2024-02-16T00:03:27;151223.28;;;0.46;81.96
10127;BME280;13080;42.608;23.362;2024-02-16T00:05:54;151234.88;;;0.51;81.86
10127;BME280;13080;42.608;23.362;2024-02-16T00:08:21;151236.16;;;0.51;81.50
10127;BME280;13080;42.608;23.362;2024-02-16T00:10:48;151223.28;;;0.46;81.62
10127;BME280;13080;42.608;23.362;2024-02-16T00:13:15;151206.56;;;0.39;82.02
10127;BME280;13080;42.608;23.362;2024-02-16T00:15:43;151194.97;;;0.35;82.54
10127;BME280;13080;42.608;23.362;2024-02-16T00:18:10;151184.66;;;0.31;83.04
10127;BME280;13080;42.608;23.362;2024-02-16T00:20:38;151191.06;;;0.33;83.12
10127;BME280;13080;42.608;23.362;2024-02-16T00:23:05;151192.41;;;0.34;82.73
10127;BME280;13080;42.608;23.362;2024-02-16T00:25:32;151192.41;;;0.34;82.53
10127;BME280;13080;42.608;23.362;2024-02-16T00:27:59;151187.25;;;0.32;82.45
10127;BME280;13080;42.608;23.362;2024-02-16T00:30:26;151173.06;;;0.26;82.38
10127;BME280;13080;42.608;23.362;2024-02-16T00:32:55;151167.91;;;0.24;82.91
10127;BME280;13080;42.608;23.362;2024-02-16T00:35:21;151158.91;;;0.20;82.88
10127;BME280;13080;42.608;23.362;2024-02-16T00:37:48;151147.31;;;0.16;82.95
10127;BME280;13080;42.608;23.362;2024-02-16T00:40:16;151143.44;;;0.14;83.48
10127;BME280;13080;42.608;23.362;2024-02-16T00:42:43;151135.72;;;0.11;83.24
10127;BME280;13080;42.608;23.362;2024-02-16T00:45:09;151200.13;;;0.37;83.53
10127;BME280;13080;42.608;23.362;2024-02-16T00:47:37;151155.03;;;0.19;83.95
10127;BME280;13080;42.608;23.362;2024-02-16T00:50:07;151130.59;;;0.09;84.75
10127;BME280;13080;42.608;23.362;2024-02-16T00:52:35;151082.91;;;-0.10;85.27
10127;BME280;13080;42.608;23.362;2024-02-16T00:55:03;151055.84;;;-0.21;85.24
10127;BME280;13080;42.608;23.362;2024-02-16T00:57:30;151027.53;;;-0.32;86.48
10127;BME280;13080;42.608;23.362;2024-02-16T00:59:58;151004.38;;;-0.41;87.25
10127;BME280;13080;42.608;23.362;2024-02-16T01:02:25;151009.53;;;-0.39;86.77
10127;BME280;13080;42.608;23.362;2024-02-16T01:04:52;150986.34;;;-0.48;87.58
10127;BME280;13080;42.608;23.362;2024-02-16T01:07:24;150982.47;;;-0.50;86.81
10127;BME280;13080;42.608;23.362;2024-02-16T01:09:51;150983.81;;;-0.49;87.18
10127;BME280;13080;42.608;23.362;2024-02-16T01:12:18;150968.34;;;-0.55;87.85
10127;BME280;13080;42.608;23.362;2024-02-16T01:14:45;150947.72;;;-0.64;88.63
10127;BME280;13080;42.608;23.362;2024-02-16T01:17:12;150938.75;;;-0.67;88.86
10127;BME280;13080;42.608;23.362;2024-02-16T01:19:39;150937.44;;;-0.68;88.87
10127;BME280;13080;42.608;23.362;2024-02-16T01:22:06;150925.84;;;-0.72;88.86
10127;BME280;13080;42.608;23.362;2024-02-16T01:24:34;150900.13;;;-0.82;89.86
10127;BME280;13080;42.608;23.362;2024-02-16T01:27:01;150901.41;;;-0.82;90.03
10127;BME280;13080;42.608;23.362;2024-02-16T01:29:28;150894.97;;;-0.85;89.31
10127;BME280;13080;42.608;23.362;2024-02-16T01:31:55;150920.69;;;-0.74;89.06
10127;BME280;13080;42.608;23.362;2024-02-16T01:34:21;150937.44;;;-0.68;88.94
10127;BME280;13080;42.608;23.362;2024-02-16T01:36:48;150938.75;;;-0.67;89.18
10127;BME280;13080;42.608;23.362;2024-02-16T01:39:15;150936.16;;;-0.68;88.96
10127;BME280;13080;42.608;23.362;2024-02-16T01:41:43;150936.16;;;-0.68;88.21
10127;BME280;13080;42.608;23.362;2024-02-16T01:44:10;150940.03;;;-0.67;88.51
10127;BME280;13080;42.608;23.362;2024-02-16T01:46:37;150933.59;;;-0.69;88.58
10127;BME280;13080;42.608;23.362;2024-02-16T01:49:04;150920.69;;;-0.74;88.55
10127;BME280;13080;42.608;23.362;2024-02-16T01:51:33;150927.16;;;-0.72;89.12
10127;BME280;13080;42.608;23.362;2024-02-16T01:54:02;150928.44;;;-0.71;88.32
10127;BME280;13080;42.608;23.362;2024-02-16T01:56:29;150924.56;;;-0.73;88.58
10127;BME280;13080;42.608;23.362;2024-02-16T01:58:58;150922.03;;;-0.74;88.64
10127;BME280;13080;42.608;23.362;2024-02-16T02:01:25;150911.72;;;-0.78;89.61
10127;BME280;13080;42.608;23.362;2024-02-16T02:03:52;150915.53;;;-0.76;89.58
10127;BME280;13080;42.608;23.362;2024-02-16T02:06:19;150924.56;;;-0.73;89.45
10127;BME280;13080;42.608;23.362;2024-02-16T02:08:46;150925.84;;;-0.72;89.65
10127;BME280;13080;42.608;23.362;2024-02-16T02:11:13;150934.88;;;-0.69;89.56
10127;BME280;13080;42.608;23.362;2024-02-16T02:13:40;150938.75;;;-0.67;89.06
10127;BME280;13080;42.608;23.362;2024-02-16T02:16:09;150936.16;;;-0.68;89.19
10127;BME280;13080;42.608;23.362;2024-02-16T02:18:37;150943.84;;;-0.65;89.57
10127;BME280;13080;42.608;23.362;2024-02-16T02:21:04;150968.34;;;-0.55;89.60
10127;BME280;13080;42.608;23.362;2024-02-16T02:23:32;150978.66;;;-0.51;89.30
10127;BME280;13080;42.608;23.362;2024-02-16T02:25:59;150987.63;;;-0.48;89.35
10127;BME280;13080;42.608;23.362;2024-02-16T02:28:26;150986.34;;;-0.48;89.13
10127;BME280;13080;42.608;23.362;2024-02-16T02:30:54;151001.81;;;-0.42;89.27
10127;BME280;13080;42.608;23.362;2024-02-16T02:33:21;151008.25;;;-0.39;89.14
10127;BME280;13080;42.608;23.362;2024-02-16T02:35:47;151009.53;;;-0.39;89.49
10127;BME280;13080;42.608;23.362;2024-02-16T02:38:14;151001.81;;;-0.42;89.46
10127;BME280;13080;42.608;23.362;2024-02-16T02:40:42;150999.22;;;-0.43;89.15
10127;BME280;13080;42.608;23.362;2024-02-16T02:43:09;150996.66;;;-0.44;89.62
10127;BME280;13080;42.608;23.362;2024-02-16T02:45:36;151035.28;;;-0.29;89.90
10127;BME280;13080;42.608;23.362;2024-02-16T02:48:03;151014.69;;;-0.37;89.56
10127;BME280;13080;42.608;23.362;2024-02-16T02:50:30;151026.25;;;-0.32;88.70
10127;BME280;13080;42.608;23.362;2024-02-16T02:52:57;151046.88;;;-0.24;88.48
10127;BME280;13080;42.608;23.362;2024-02-16T02:55:24;151059.72;;;-0.19;88.72
10127;BME280;13080;42.608;23.362;2024-02-16T02:57:52;151053.31;;;-0.22;88.31
10127;BME280;13080;42.608;23.362;2024-02-16T03:00:19;151048.16;;;-0.24;87.74
10127;BME280;13080;42.608;23.362;2024-02-16T03:02:46;151049.44;;;-0.23;88.33
10127;BME280;13080;42.608;23.362;2024-02-16T03:05:14;151035.28;;;-0.29;89.00
10127;BME280;13080;42.608;23.362;2024-02-16T03:07:41;151035.28;;;-0.29;88.88
10127;BME280;13080;42.608;23.362;2024-02-16T03:10:08;151040.44;;;-0.27;88.56
10127;BME280;13080;42.608;23.362;2024-02-16T03:12:36;151040.44;;;-0.27;88.86
10127;BME280;13080;42.608;23.362;2024-02-16T03:15:05;151054.56;;;-0.21;88.33
10127;BME280;13080;42.608;23.362;2024-02-16T03:17:32;151050.69;;;-0.23;88.66
10127;BME280;13080;42.608;23.362;2024-02-16T03:19:59;151048.16;;;-0.24;88.73
10127;BME280;13080;42.608;23.362;2024-02-16T03:22:26;151048.16;;;-0.24;88.21
10127;BME280;13080;42.608;23.362;2024-02-16T03:24:53;151045.59;;;-0.25;88.73
10127;BME280;13080;42.608;23.362;2024-02-16T03:27:20;151044.28;;;-0.25;89.04
10127;BME280;13080;42.608;23.362;2024-02-16T03:29:46;151041.72;;;-0.26;89.19
10127;BME280;13080;42.608;23.362;2024-02-16T03:32:15;151024.97;;;-0.33;89.26
10127;BME280;13080;42.608;23.362;2024-02-16T03:34:42;151010.78;;;-0.38;89.31
10127;BME280;13080;42.608;23.362;2024-02-16T03:37:09;151013.41;;;-0.37;90.23
10127;BME280;13080;42.608;23.362;2024-02-16T03:39:36;151006.97;;;-0.40;89.82
10127;BME280;13080;42.608;23.362;2024-02-16T03:42:03;151015.94;;;-0.36;89.83
10127;BME280;13080;42.608;23.362;2024-02-16T03:44:30;151013.41;;;-0.37;90.10
10127;BME280;13080;42.608;23.362;2024-02-16T03:46:57;151015.94;;;-0.36;90.10
10127;BME280;13080;42.608;23.362;2024-02-16T03:49:26;151018.56;;;-0.35;90.48
10127;BME280;13080;42.608;23.362;2024-02-16T03:51:53;151017.28;;;-0.36;89.83
10127;BME280;13080;42.608;23.362;2024-02-16T03:54:20;151014.69;;;-0.37;90.39
10127;BME280;13080;42.608;23.362;2024-02-16T03:56:47;151015.94;;;-0.36;90.79
10127;BME280;13080;42.608;23.362;2024-02-16T03:59:14;151024.97;;;-0.33;90.04
10127;BME280;13080;42.608;23.362;2024-02-16T04:01:41;151045.59;;;-0.25;90.01
10127;BME280;13080;42.608;23.362;2024-02-16T04:04:08;151054.56;;;-0.21;90.12
10127;BME280;13080;42.608;23.362;2024-02-16T04:06:36;151061.00;;;-0.18;89.47
10127;BME280;13080;42.608;23.362;2024-02-16T04:09:03;151063.63;;;-0.17;90.44
10127;BME280;13080;42.608;23.362;2024-02-16T04:11:31;151045.59;;;-0.25;90.65
10127;BME280;13080;42.608;23.362;2024-02-16T04:13:58;151033.97;;;-0.29;90.88
10127;BME280;13080;42.608;23.362;2024-02-16T04:16:25;151019.81;;;-0.35;91.36
10127;BME280;13080;42.608;23.362;2024-02-16T04:18:52;151006.97;;;-0.40;90.90
10127;BME280;13080;42.608;23.362;2024-02-16T04:21:19;150997.94;;;-0.44;90.79
10127;BME280;13080;42.608;23.362;2024-02-16T04:23:48;150996.66;;;-0.44;91.67
10127;BME280;13080;42.608;23.362;2024-02-16T04:26:15;150983.81;;;-0.49;91.98
10127;BME280;13080;42.608;23.362;2024-02-16T04:28:42;150983.81;;;-0.49;91.88
10127;BME280;13080;42.608;23.362;2024-02-16T04:31:09;150979.94;;;-0.51;92.13
10127;BME280;13080;42.608;23.362;2024-02-16T04:33:36;150963.19;;;-0.57;91.80
10127;BME280;13080;42.608;23.362;2024-02-16T04:36:05;150960.59;;;-0.58;92.72
10127;BME280;13080;42.608;23.362;2024-02-16T04:38:33;150961.91;;;-0.58;92.29
10127;BME280;13080;42.608;23.362;2024-02-16T04:41:04;150955.50;;;-0.60;91.91
10127;BME280;13080;42.608;23.362;2024-02-16T04:43:31;150927.16;;;-0.72;92.79
10127;BME280;13080;42.608;23.362;2024-02-16T04:45:58;150931.00;;;-0.70;92.45
10127;BME280;13080;42.608;23.362;2024-02-16T04:48:25;150918.16;;;-0.75;93.45
10127;BME280;13080;42.608;23.362;2024-02-16T04:50:52;150927.16;;;-0.72;92.38
10127;BME280;13080;42.608;23.362;2024-02-16T04:53:19;150903.97;;;-0.81;93.26
10127;BME280;13080;42.608;23.362;2024-02-16T04:55:46;150924.56;;;-0.73;94.30
10127;BME280;13080;42.608;23.362;2024-02-16T04:58:14;150945.19;;;-0.65;93.56
10127;BME280;13080;42.608;23.362;2024-02-16T05:00:41;150947.72;;;-0.64;92.24
10127;BME280;13080;42.608;23.362;2024-02-16T05:03:08;150967.06;;;-0.56;93.01
10127;BME280;13080;42.608;23.362;2024-02-16T05:05:35;150956.75;;;-0.60;92.16
10127;BME280;13080;42.608;23.362;2024-02-16T05:08:02;150965.75;;;-0.56;91.75
10127;BME280;13080;42.608;23.362;2024-02-16T05:10:29;150965.75;;;-0.56;92.64
10127;BME280;13080;42.608;23.362;2024-02-16T05:12:56;150972.22;;;-0.54;92.45
10127;BME280;13080;42.608;23.362;2024-02-16T05:15:25;150976.03;;;-0.52;92.69
10127;BME280;13080;42.608;23.362;2024-02-16T05:17:53;150985.06;;;-0.49;92.17
10127;BME280;13080;42.608;23.362;2024-02-16T05:20:20;151004.38;;;-0.41;92.17
10127;BME280;13080;42.608;23.362;2024-02-16T05:22:47;150960.59;;;-0.58;92.57
10127;BME280;13080;42.608;23.362;2024-02-16T05:25:15;150949.00;;;-0.63;92.19
10127;BME280;13080;42.608;23.362;2024-02-16T05:27:43;150938.75;;;-0.67;92.28
10127;BME280;13080;42.608;23.362;2024-02-16T05:30:11;150932.28;;;-0.70;93.11
10127;BME280;13080;42.608;23.362;2024-02-16T05:32:42;150951.59;;;-0.62;92.23
10127;BME280;13080;42.608;23.362;2024-02-16T05:35:10;150955.50;;;-0.60;92.88
10127;BME280;13080;42.608;23.362;2024-02-16T05:37:40;150943.84;;;-0.65;92.45
10127;BME280;13080;42.608;23.362;2024-02-16T05:40:09;150949.00;;;-0.63;92.38
10127;BME280;13080;42.608;23.362;2024-02-16T05:42:47;150945.19;;;-0.65;93.27
10127;BME280;13080;42.608;23.362;2024-02-16T05:45:15;150936.16;;;-0.68;92.68
10127;BME280;13080;42.608;23.362;2024-02-16T05:47:45;150943.84;;;-0.65;92.85
10127;BME280;13080;42.608;23.362;2024-02-16T05:50:13;150950.34;;;-0.63;93.34
10127;BME280;13080;42.608;23.362;2024-02-16T05:52:40;150985.06;;;-0.49;92.95
10127;BME280;13080;42.608;23.362;2024-02-16T05:55:08;151012.13;;;-0.38;91.74
10127;BME280;13080;42.608;23.362;2024-02-16T05:57:35;151027.53;;;-0.32;91.46
10127;BME280;13080;42.608;23.362;2024-02-16T06:00:05;151037.84;;;-0.28;91.15
10127;BME280;13080;42.608;23.362;2024-02-16T06:02:33;151043.00;;;-0.26;91.44
10127;BME280;13080;42.608;23.362;2024-02-16T06:05:02;151076.47;;;-0.12;91.25
10127;BME280;13080;42.608;23.362;2024-02-16T06:07:30;151102.25;;;-0.02;90.27
10127;BME280;13080;42.608;23.362;2024-02-16T06:09:57;151093.22;;;-0.06;90.37
10127;BME280;13080;42.608;23.362;2024-02-16T06:12:24;151073.91;;;-0.13;90.16
10127;BME280;13080;42.608;23.362;2024-02-16T06:14:51;151100.94;;;-0.03;91.61
10127;BME280;13080;42.608;23.362;2024-02-16T06:17:20;151094.50;;;-0.05;91.48
10127;BME280;13080;42.608;23.362;2024-02-16T06:19:46;151082.91;;;-0.10;91.84
10127;BME280;13080;42.608;23.362;2024-02-16T06:22:15;151086.78;;;-0.08;91.53
10127;BME280;13080;42.608;23.362;2024-02-16T06:24:42;151093.22;;;-0.06;91.17
10127;BME280;13080;42.608;23.362;2024-02-16T06:27:10;151196.25;;;0.35;89.88
10127;BME280;13080;42.608;23.362;2024-02-16T06:29:37;151202.66;;;0.38;88.14
10127;BME280;13080;42.608;23.362;2024-02-16T06:32:04;151178.22;;;0.28;89.26
10127;BME280;13080;42.608;23.362;2024-02-16T06:34:31;151194.97;;;0.35;88.10
10127;BME280;13080;42.608;23.362;2024-02-16T06:36:58;151189.81;;;0.33;89.20
10127;BME280;13080;42.608;23.362;2024-02-16T06:39:26;151187.25;;;0.32;88.96
10127;BME280;13080;42.608;23.362;2024-02-16T06:41:55;151233.63;;;0.50;88.01
10127;BME280;13080;42.608;23.362;2024-02-16T06:44:22;151234.88;;;0.51;87.77
10127;BME280;13080;42.608;23.362;2024-02-16T06:46:49;151224.56;;;0.47;88.56
10127;BME280;13080;42.608;23.362;2024-02-16T06:49:16;151251.63;;;0.57;88.12
10127;BME280;13080;42.608;23.362;2024-02-16T06:51:43;151291.59;;;0.73;87.69
10127;BME280;13080;42.608;23.362;2024-02-16T06:54:10;151328.97;;;0.88;87.09
10127;BME280;13080;42.608;23.362;2024-02-16T06:56:38;151332.81;;;0.90;87.08
10127;BME280;13080;42.608;23.362;2024-02-16T06:59:05;151312.22;;;0.81;87.11
10127;BME280;13080;42.608;23.362;2024-02-16T07:01:32;151307.06;;;0.79;87.44
10127;BME280;13080;42.608;23.362;2024-02-16T07:03:59;151352.16;;;0.97;86.63
10127;BME280;13080;42.608;23.362;2024-02-16T07:06:27;151357.31;;;0.99;86.21
10127;BME280;13080;42.608;23.362;2024-02-16T07:08:54;151361.19;;;1.01;86.53
10127;BME280;13080;42.608;23.362;2024-02-16T07:11:21;151371.47;;;1.05;86.46
10127;BME280;13080;42.608;23.362;2024-02-16T07:13:49;151394.66;;;1.14;86.46
10127;BME280;13080;42.608;23.362;2024-02-16T07:16:16;151484.91;;;1.50;84.56
10127;BME280;13080;42.608;23.362;2024-02-16T07:18:43;151481.06;;;1.49;84.77
10127;BME280;13080;42.608;23.362;2024-02-16T07:21:10;151472.03;;;1.45;85.43
10127;BME280;13080;42.608;23.362;2024-02-16T07:23:38;151472.03;;;1.45;84.80
10127;BME280;13080;42.608;23.362;2024-02-16T07:26:05;151492.69;;;1.53;84.27
10127;BME280;13080;42.608;23.362;2024-02-16T07:28:33;151505.56;;;1.58;84.34
10127;BME280;13080;42.608;23.362;2024-02-16T07:31:02;151541.69;;;1.73;83.87
10127;BME280;13080;42.608;23.362;2024-02-16T07:33:29;151540.38;;;1.72;84.06
10127;BME280;13080;42.608;23.362;2024-02-16T07:35:56;151557.13;;;1.79;83.67
10127;BME280;13080;42.608;23.362;2024-02-16T07:38:23;151593.28;;;1.93;83.31
10127;BME280;13080;42.608;23.362;2024-02-16T07:40:50;151606.16;;;1.98;83.29
10127;BME280;13080;42.608;23.362;2024-02-16T07:43:17;151644.88;;;2.14;83.13
10127;BME280;13080;42.608;23.362;2024-02-16T07:45:44;151695.19;;;2.34;82.09
10127;BME280;13080;42.608;23.362;2024-02-16T07:48:12;151750.69;;;2.56;80.82
10127;BME280;13080;42.608;23.362;2024-02-16T07:50:39;151768.75;;;2.63;80.66
10127;BME280;13080;42.608;23.362;2024-02-16T07:53:06;151775.19;;;2.65;80.50
10127;BME280;13080;42.608;23.362;2024-02-16T07:55:35;151782.91;;;2.68;80.52
10127;BME280;13080;42.608;23.362;2024-02-16T07:58:02;151795.88;;;2.74;80.30
10127;BME280;13080;42.608;23.362;2024-02-16T08:00:29;151807.47;;;2.78;80.69
10127;BME280;13080;42.608;23.362;2024-02-16T08:02:56;151851.34;;;2.96;80.28
10127;BME280;13080;42.608;23.362;2024-02-16T08:05:24;151855.22;;;2.97;81.12
10127;BME280;13080;42.608;23.362;2024-02-16T08:07:52;151963.69;;;3.40;77.91
10127;BME280;13080;42.608;23.362;2024-02-16T08:10:19;151981.75;;;3.47;77.40
10127;BME280;13080;42.608;23.362;2024-02-16T08:12:47;151990.81;;;3.51;77.24
10127;BME280;13080;42.608;23.362;2024-02-16T08:15:14;152006.31;;;3.57;77.03
10127;BME280;13080;42.608;23.362;2024-02-16T08:17:48;152077.34;;;3.85;75.77
10127;BME280;13080;42.608;23.362;2024-02-16T08:20:15;152043.75;;;3.72;76.41
10127;BME280;13080;42.608;23.362;2024-02-16T08:22:43;152103.19;;;3.95;75.35
10127;BME280;13080;42.608;23.362;2024-02-16T08:25:10;152095.47;;;3.92;74.67
10127;BME280;13080;42.608;23.362;2024-02-16T08:27:37;152126.44;;;4.05;74.63
10127;BME280;13080;42.608;23.362;2024-02-16T08:30:05;152148.41;;;4.13;78.81
10127;BME280;13080;42.608;23.362;2024-02-16T08:32:34;152169.13;;;4.22;74.62
10127;BME280;13080;42.608;23.362;2024-02-16T08:35:01;152220.81;;;4.42;73.35
10127;BME280;13080;42.608;23.362;2024-02-16T08:37:28;152182.03;;;4.27;73.66
10127;BME280;13080;42.608;23.362;2024-02-16T08:39:57;152207.84;;;4.37;72.53
10127;BME280;13080;42.608;23.362;2024-02-16T08:42:23;152254.41;;;4.55;71.15
10127;BME280;13080;42.608;23.362;2024-02-16T08:44:50;152244.06;;;4.51;72.10
10127;BME280;13080;42.608;23.362;2024-02-16T08:47:17;152238.88;;;4.49;71.61
10127;BME280;13080;42.608;23.362;2024-02-16T08:49:44;152245.34;;;4.52;71.55
10127;BME280;13080;42.608;23.362;2024-02-16T08:52:11;152285.41;;;4.68;70.71
10127;BME280;13080;42.608;23.362;2024-02-16T08:54:38;152306.13;;;4.76;68.71
10127;BME280;13080;42.608;23.362;2024-02-16T08:57:06;152278.97;;;4.65;69.76
10127;BME280;13080;42.608;23.362;2024-02-16T08:59:33;152344.91;;;4.91;69.66
10127;BME280;13080;42.608;23.362;2024-02-16T09:02:00;152320.31;;;4.82;69.59
10127;BME280;13080;42.608;23.362;2024-02-16T09:04:27;152328.09;;;4.85;68.94
10127;BME280;13080;42.608;23.362;2024-02-16T09:06:54;152359.09;;;4.97;68.60
10127;BME280;13080;42.608;23.362;2024-02-16T09:09:21;152426.38;;;5.24;67.27
10127;BME280;13080;42.608;23.362;2024-02-16T09:11:48;152413.44;;;5.18;68.08
10127;BME280;13080;42.608;23.362;2024-02-16T09:14:17;152417.28;;;5.20;67.77
10127;BME280;13080;42.608;23.362;2024-02-16T09:16:43;152412.16;;;5.18;69.14
10127;BME280;13080;42.608;23.362;2024-02-16T09:19:10;152463.91;;;5.38;68.00
10127;BME280;13080;42.608;23.362;2024-02-16T09:21:37;152435.44;;;5.27;67.87
10127;BME280;13080;42.608;23.362;2024-02-16T09:24:05;152465.19;;;5.39;68.74
10127;BME280;13080;42.608;23.362;2024-02-16T09:26:36;152502.72;;;5.54;67.55
10127;BME280;13080;42.608;23.362;2024-02-16T09:29:02;152523.38;;;5.62;66.82
10127;BME280;13080;42.608;23.362;2024-02-16T09:31:31;152537.63;;;5.68;66.93
10127;BME280;13080;42.608;23.362;2024-02-16T09:33:58;152554.47;;;5.74;67.31
10127;BME280;13080;42.608;23.362;2024-02-16T09:36:25;152536.31;;;5.67;68.48
10127;BME280;13080;42.608;23.362;2024-02-16T09:38:52;152563.47;;;5.78;66.22
10127;BME280;13080;42.608;23.362;2024-02-16T09:41:19;152571.28;;;5.81;66.21
10127;BME280;13080;42.608;23.362;2024-02-16T09:43:46;152551.84;;;5.73;66.09
10127;BME280;13080;42.608;23.362;2024-02-16T09:46:13;152571.28;;;5.81;67.21
10127;BME280;13080;42.608;23.362;2024-02-16T09:48:46;152580.31;;;5.84;66.26
10127;BME280;13080;42.608;23.362;2024-02-16T09:51:18;152582.91;;;5.86;66.34
10127;BME280;13080;42.608;23.362;2024-02-16T09:53:50;152566.09;;;5.79;66.58
10127;BME280;13080;42.608;23.362;2024-02-16T09:56:19;152585.50;;;5.87;66.84
10127;BME280;13080;42.608;23.362;2024-02-16T09:58:46;152638.63;;;6.08;65.28
10127;BME280;13080;42.608;23.362;2024-02-16T10:01:17;152673.56;;;6.21;65.13
10127;BME280;13080;42.608;23.362;2024-02-16T10:03:48;152664.47;;;6.18;64.80
10127;BME280;13080;42.608;23.362;2024-02-16T10:06:16;152641.19;;;6.09;64.35
10127;BME280;13080;42.608;23.362;2024-02-16T10:08:50;152646.38;;;6.11;64.78
10127;BME280;13080;42.608;23.362;2024-02-16T10:11:18;152647.66;;;6.11;64.84
10127;BME280;13080;42.608;23.362;2024-02-16T10:13:56;152659.31;;;6.16;64.61
10127;BME280;13080;42.608;23.362;2024-02-16T10:16:23;152637.28;;;6.07;64.63
10127;BME280;13080;42.608;23.362;2024-02-16T10:18:54;152650.28;;;6.12;64.82
10127;BME280;13080;42.608;23.362;2024-02-16T10:21:25;152669.66;;;6.20;64.96
10127;BME280;13080;42.608;23.362;2024-02-16T10:24:00;152683.94;;;6.26;64.29
10127;BME280;13080;42.608;23.362;2024-02-16T10:26:28;152729.25;;;6.43;64.01
10127;BME280;13080;42.608;23.362;2024-02-16T10:28:55;152760.28;;;6.56;63.13
10127;BME280;13080;42.608;23.362;2024-02-16T10:31:24;152729.25;;;6.43;63.96
10127;BME280;13080;42.608;23.362;2024-02-16T10:33:58;152742.16;;;6.49;62.62
10127;BME280;13080;42.608;23.362;2024-02-16T10:36:25;152721.44;;;6.40;63.75
10127;BME280;13080;42.608;23.362;2024-02-16T10:38:54;152705.88;;;6.34;64.47
10127;BME280;13080;42.608;23.362;2024-02-16T10:41:26;152742.16;;;6.49;62.78
10127;BME280;13080;42.608;23.362;2024-02-16T10:43:55;152760.28;;;6.56;61.83
10127;BME280;13080;42.608;23.362;2024-02-16T10:46:23;152716.25;;;6.38;63.56
10127;BME280;13080;42.608;23.362;2024-02-16T10:48:50;152695.56;;;6.30;64.54
10127;BME280;13080;42.608;23.362;2024-02-16T10:51:23;152740.88;;;6.48;62.98
10127;BME280;13080;42.608;23.362;2024-02-16T10:53:52;152813.34;;;6.77;62.14
10127;BME280;13080;42.608;23.362;2024-02-16T10:56:27;152821.16;;;6.80;62.18
10127;BME280;13080;42.608;23.362;2024-02-16T10:58:54;152813.34;;;6.77;62.41
10127;BME280;13080;42.608;23.362;2024-02-16T11:01:22;152831.53;;;6.84;61.03
10127;BME280;13080;42.608;23.362;2024-02-16T11:03:49;152857.41;;;6.94;60.94
10127;BME280;13080;42.608;23.362;2024-02-16T11:06:28;152809.50;;;6.75;60.94
10127;BME280;13080;42.608;23.362;2024-02-16T11:09:01;152861.31;;;6.96;60.49
10127;BME280;13080;42.608;23.362;2024-02-16T11:11:33;152818.53;;;6.79;60.63
10127;BME280;13080;42.608;23.362;2024-02-16T11:14:01;152783.59;;;6.65;61.26
10127;BME280;13080;42.608;23.362;2024-02-16T11:16:29;152791.34;;;6.68;62.73
10127;BME280;13080;42.608;23.362;2024-02-16T11:18:56;152769.38;;;6.59;63.47
10127;BME280;13080;42.608;23.362;2024-02-16T11:21:23;152781.00;;;6.64;63.72
10127;BME280;13080;42.608;23.362;2024-02-16T11:23:52;152819.88;;;6.79;63.34
10127;BME280;13080;42.608;23.362;2024-02-16T11:26:19;152869.06;;;6.99;61.83
10127;BME280;13080;42.608;23.362;2024-02-16T11:28:46;152909.19;;;7.15;60.93
10127;BME280;13080;42.608;23.362;2024-02-16T11:31:13;152900.16;;;7.11;61.13
10127;BME280;13080;42.608;23.362;2024-02-16T11:33:43;152924.75;;;7.21;60.96
10127;BME280;13080;42.608;23.362;2024-02-16T11:36:10;152892.34;;;7.08;62.40
10127;BME280;13080;42.608;23.362;2024-02-16T11:38:37;152910.53;;;7.15;60.37
10127;BME280;13080;42.608;23.362;2024-02-16T11:41:07;152889.78;;;7.07;61.42
10127;BME280;13080;42.608;23.362;2024-02-16T11:43:34;152884.59;;;7.05;61.30
10127;BME280;13080;42.608;23.362;2024-02-16T11:46:11;152917.00;;;7.18;61.20
10127;BME280;13080;42.608;23.362;2024-02-16T11:48:38;152983.03;;;7.44;59.77
10127;BME280;13080;42.608;23.362;2024-02-16T11:51:05;152979.19;;;7.42;60.71
10127;BME280;13080;42.608;23.362;2024-02-16T11:53:32;152963.63;;;7.36;60.16
10127;BME280;13080;42.608;23.362;2024-02-16T11:55:59;152977.84;;;7.42;59.81
10127;BME280;13080;42.608;23.362;2024-02-16T11:58:27;152983.03;;;7.44;59.35
10127;BME280;13080;42.608;23.362;2024-02-16T12:00:54;152988.22;;;7.46;59.75
10127;BME280;13080;42.608;23.362;2024-02-16T12:03:25;152972.66;;;7.40;60.04
10127;BME280;13080;42.608;23.362;2024-02-16T12:05:54;152996.03;;;7.49;60.21
10127;BME280;13080;42.608;23.362;2024-02-16T12:08:22;152983.03;;;7.44;60.50
10127;BME280;13080;42.608;23.362;2024-02-16T12:10:50;153028.41;;;7.62;59.76
10127;BME280;13080;42.608;23.362;2024-02-16T12:13:18;153021.94;;;7.59;59.76
10127;BME280;13080;42.608;23.362;2024-02-16T12:15:47;153063.38;;;7.76;58.72
10127;BME280;13080;42.608;23.362;2024-02-16T12:18:21;153073.75;;;7.80;59.06
10127;BME280;13080;42.608;23.362;2024-02-16T12:20:59;153100.97;;;7.90;58.25
10127;BME280;13080;42.608;23.362;2024-02-16T12:23:26;153075.09;;;7.80;59.55
10127;BME280;13080;42.608;23.362;2024-02-16T12:25:53;153112.63;;;7.95;57.61
10127;BME280;13080;42.608;23.362;2024-02-16T12:28:25;153069.91;;;7.78;57.96
10127;BME280;13080;42.608;23.362;2024-02-16T12:30:54;153106.16;;;7.93;57.78
10127;BME280;13080;42.608;23.362;2024-02-16T12:33:22;153093.22;;;7.87;58.00
10127;BME280;13080;42.608;23.362;2024-02-16T12:35:49;153080.22;;;7.82;58.97
10127;BME280;13080;42.608;23.362;2024-02-16T12:38:16;153111.34;;;7.95;58.32
10127;BME280;13080;42.608;23.362;2024-02-16T12:40:44;153123.03;;;7.99;58.64
10127;BME280;13080;42.608;23.362;2024-02-16T12:43:11;153130.78;;;8.02;57.95
10127;BME280;13080;42.608;23.362;2024-02-16T12:45:39;153088.03;;;7.85;59.22
10127;BME280;13080;42.608;23.362;2024-02-16T12:48:07;153103.59;;;7.91;58.50